LPPT/LIS METAR and TAF weather

Enter ICAO airport designator
Station Type Date Time Source
LPPT METAR 2019/02/20 07:00 UTC NOAA

LPPT 200700Z VRB01KT CAVOK 06/04 Q1021


Station Type Date Time Source
LPPT Decoded METAR 2019/02/20 07:00 UTC NOAA

Lisboa / Portela, Portugal (LPPT) 38-46N 009-08W 123M
Feb 20, 2019 - 02:00 AM EST / 2019.02.20 0700 UTC
Wind: Variable at 1 MPH (1 KT):0
Visibility: greater than 7 mile(s):0
Temperature: 42 F (6 C)
Dew Point: 39 F (4 C)
Relative Humidity: 86%
Pressure (altimeter): 30.15 in. Hg (1021 hPa)
ob: LPPT 200700Z VRB01KT CAVOK 06/04 Q1021
cycle: 7

Station Type Date Time Source
LPPT TAF 2019/02/20 06:18 UTC NOAA

TAF TAF LPPT 200500Z 2006/2112 VRB03KT CAVOK PROB30 2007/2010 5000 BR SCT003
BECMG 2009/2011 09005KT
BECMG 2014/2016 23007KT 9999 SCT030
BECMG 2019/2021 VRB03KT CAVOK
BECMG 2103/2106 09005KT
BECMG 2109/2112 12007KT


Example: see airport list